Time;durP1;ratioP1;P1;durP2;ratioP2;P2;SDS_P1;SDS_P2;PMS_P1;PMS_P2;Temp;Humidity;BMP_temperature;BMP_pressure;BME280_temperature;BME280_humidity;BME280_pressure;Samples;Min_cycle;Max_cycle;Signal;HPM_P1;HPM_P2
2022/06/16 00:00:26;;;;;;;;;;;;;;;22.58;45.60;98987.38;2046379;28;19929;-68
2022/06/16 00:01:28;;;;;;;;;;;;;;;22.46;45.85;98989.97;2043820;28;20532;-65
2022/06/16 00:02:29;;;;;;;;;;;;;;;22.40;46.11;98990.81;2049233;28;20423;-67
2022/06/16 00:03:30;;;;;;;;;;;;;;;22.43;45.88;98990.41;2045167;28;20612;-67
2022/06/16 00:04:31;;;;;;;;;;;;;;;22.41;45.44;98995.19;2048190;28;19926;-67
2022/06/16 00:05:34;;;;;;;;;;;;;;;22.26;45.66;98990.13;2048307;28;19925;-67
2022/06/16 00:06:35;;;;;;;;;;;;;;;22.29;45.60;98986.97;2051164;28;19933;-67
2022/06/16 00:07:36;;;;;;;;;;;;;;;22.29;45.50;98984.28;2050396;28;19929;-67
2022/06/16 00:08:37;;;;;;;;;;;;;;;22.23;45.39;98982.41;2047535;28;19926;-67
2022/06/16 00:09:38;;;;;;;;;;;;;;;22.15;45.51;98972.69;2050587;28;20509;-67
2022/06/16 00:11:16;;;;;;;;;;;;;;;22.18;45.47;98976.88;2048921;28;19936;-67
2022/06/16 00:12:01;;;;;;;;;;;;;;;22.21;45.01;98979.97;2041828;28;19938;-67
2022/06/16 00:13:03;;;;;;;;;;;;;;;22.27;44.71;98981.78;2051130;28;19934;-67
2022/06/16 00:14:03;;;;;;;;;;;;;;;22.21;44.64;98979.13;2049175;28;20261;-67
2022/06/16 00:15:06;;;;;;;;;;;;;;;22.15;44.88;98982.66;2048429;28;20755;-68
2022/06/16 00:16:07;;;;;;;;;;;;;;;22.13;45.05;98984.78;2049440;28;20411;-67
2022/06/16 00:17:10;;;;;;;;;;;;;;;22.14;44.62;98981.00;2048465;28;20415;-68
2022/06/16 00:18:11;;;;;;;;;;;;;;;22.04;44.93;98989.59;2043754;28;20005;-68
2022/06/16 00:19:12;;;;;;;;;;;;;;;22.05;44.71;98977.75;2049253;28;20117;-68
2022/06/16 00:20:13;;;;;;;;;;;;;;;22.09;44.75;98976.25;2046411;28;19952;-68
2022/06/16 00:21:15;;;;;;;;;;;;;;;22.12;44.52;98983.94;2047458;28;19926;-68
2022/06/16 00:22:15;;;;;;;;;;;;;;;22.07;44.57;98979.19;2051731;28;19930;-68
2022/06/16 00:23:17;;;;;;;;;;;;;;;22.12;46.28;98983.94;2049883;28;20043;-68
2022/06/16 00:24:19;;;;;;;;;;;;;;;22.20;47.08;98980.16;2048584;28;20875;-68
2022/06/16 00:25:20;;;;;;;;;;;;;;;22.26;47.12;98984.72;2049024;28;19937;-68
2022/06/16 00:26:23;;;;;;;;;;;;;;;22.30;47.32;98980.50;2046874;28;20442;-68
2022/06/16 00:27:23;;;;;;;;;;;;;;;22.34;47.46;98979.00;2046157;28;19930;-68
2022/06/16 00:28:25;;;;;;;;;;;;;;;22.34;47.68;98976.31;2050555;28;19956;-68
2022/06/16 00:29:26;;;;;;;;;;;;;;;22.35;47.75;98967.19;2046579;28;20403;-68
2022/06/16 00:30:27;;;;;;;;;;;;;;;22.35;48.29;98966.34;2046962;28;19965;-68
2022/06/16 00:31:28;;;;;;;;;;;;;;;22.36;48.63;98968.81;2029779;28;19937;-68
2022/06/16 00:32:31;;;;;;;;;;;;;;;22.40;48.44;98972.75;2047235;28;19938;-67
2022/06/16 00:33:31;;;;;;;;;;;;;;;22.42;48.67;98967.13;2050040;28;20128;-68
2022/06/16 00:34:33;;;;;;;;;;;;;;;22.49;48.46;98963.31;2050849;28;20107;-68
2022/06/16 00:35:34;;;;;;;;;;;;;;;22.48;48.67;98966.22;2048736;28;19926;-68
2022/06/16 00:36:37;;;;;;;;;;;;;;;22.47;48.69;98970.81;2046675;28;20299;-68
2022/06/16 00:37:39;;;;;;;;;;;;;;;22.43;49.16;98966.91;2045569;28;19983;-68
2022/06/16 00:38:40;;;;;;;;;;;;;;;22.41;48.92;98969.00;2043126;28;19934;-68
2022/06/16 00:39:41;;;;;;;;;;;;;;;22.43;48.61;98971.50;2044784;28;20366;-68
2022/06/16 00:40:42;;;;;;;;;;;;;;;22.39;48.26;98965.66;2051066;28;19949;-68
2022/06/16 00:41:43;;;;;;;;;;;;;;;22.41;47.93;98957.34;2047738;28;19926;-68
2022/06/16 00:42:45;;;;;;;;;;;;;;;22.33;47.57;98958.44;2050027;28;19934;-67
2022/06/16 00:43:46;;;;;;;;;;;;;;;22.35;47.06;98950.13;2048793;28;19930;-67
2022/06/16 00:44:50;;;;;;;;;;;;;;;22.31;46.90;98952.44;2048464;28;20236;-67
2022/06/16 00:45:53;;;;;;;;;;;;;;;22.24;46.88;98944.38;2051787;28;19937;-67
2022/06/16 00:46:54;;;;;;;;;;;;;;;22.19;46.85;98946.09;2053028;28;20020;-67
2022/06/16 00:47:57;;;;;;;;;;;;;;;22.22;46.75;98946.47;2049893;28;20211;-68
2022/06/16 00:49:00;;;;;;;;;;;;;;;22.16;46.39;98947.31;2047763;28;19936;-68
2022/06/16 00:50:03;;;;;;;;;;;;;;;22.12;45.71;98947.97;2030673;28;19942;-68
2022/06/16 00:51:08;;;;;;;;;;;;;;;22.08;45.74;98953.00;2044984;28;20032;-68
2022/06/16 00:52:11;;;;;;;;;;;;;;;21.97;45.80;98953.69;2048651;28;20219;-68
2022/06/16 00:53:12;;;;;;;;;;;;;;;21.93;46.32;98945.22;2049405;28;19934;-68
2022/06/16 00:54:16;;;;;;;;;;;;;;;21.96;46.52;98942.06;2046416;28;19930;-68
2022/06/16 00:55:17;;;;;;;;;;;;;;;22.00;46.08;98939.75;2047792;28;19930;-68
2022/06/16 00:56:19;;;;;;;;;;;;;;;21.98;45.63;98937.28;2042540;28;20486;-68
2022/06/16 00:57:21;;;;;;;;;;;;;;;22.00;45.37;98939.75;2045954;28;21663;-68
2022/06/16 00:58:24;;;;;;;;;;;;;;;21.94;45.67;98941.44;2049311;28;20025;-68
2022/06/16 00:59:24;;;;;;;;;;;;;;;21.87;45.73;98946.09;2046750;28;19934;-68
2022/06/16 01:00:26;;;;;;;;;;;;;;;21.82;45.91;98949.44;2049290;28;19934;-68
2022/06/16 01:01:27;;;;;;;;;;;;;;;21.83;45.72;98952.94;2051632;28;20034;-67
2022/06/16 01:02:29;;;;;;;;;;;;;;;21.86;45.32;98942.53;2047750;28;19936;-68
2022/06/16 01:04:53;;;;;;;;;;;;;;;21.69;45.26;98951.38;2053394;28;20447;-67
2022/06/16 01:05:54;;;;;;;;;;;;;;;21.70;45.58;98947.63;2049974;28;20011;-68
2022/06/16 01:06:56;;;;;;;;;;;;;;;21.74;45.55;98948.84;2045905;28;19991;-68
2022/06/16 01:07:57;;;;;;;;;;;;;;;21.74;44.99;98951.56;2049486;28;19926;-68
2022/06/16 01:09:00;;;;;;;;;;;;;;;21.71;44.81;98933.91;2048269;28;20490;-68
2022/06/16 01:10:01;;;;;;;;;;;;;;;21.71;44.57;98933.09;2049048;28;20309;-68
2022/06/16 01:11:06;;;;;;;;;;;;;;;21.75;44.68;98945.09;2046976;28;19932;-67
2022/06/16 01:13:41;;;;;;;;;;;;;;;21.68;44.44;98938.94;2043256;28;20345;-67
2022/06/16 01:14:48;;;;;;;;;;;;;;;21.68;44.47;98942.44;2047181;28;19930;-67
2022/06/16 01:15:56;;;;;;;;;;;;;;;21.52;44.83;98942.94;2046958;28;20045;-67
2022/06/16 01:17:01;;;;;;;;;;;;;;;21.54;44.42;98932.78;2052186;28;19930;-67
2022/06/16 01:18:08;;;;;;;;;;;;;;;21.53;44.27;98931.91;2050809;28;19965;-67
2022/06/16 01:19:21;;;;;;;;;;;;;;;21.58;43.95;98928.59;2045419;28;19934;-67
2022/06/16 01:20:29;;;;;;;;;;;;;;;21.43;44.67;98931.56;2046050;28;19926;-67
2022/06/16 01:21:33;;;;;;;;;;;;;;;21.41;44.59;98928.25;2048936;28;19941;-67
2022/06/16 01:22:43;;;;;;;;;;;;;;;21.36;44.59;98923.47;2046638;28;20370;-67
2022/06/16 01:24:00;;;;;;;;;;;;;;;21.42;44.08;98932.59;2047609;28;19999;-67
2022/06/16 01:25:06;;;;;;;;;;;;;;;21.37;44.76;98921.66;2046720;28;19966;-67
2022/06/16 01:26:21;;;;;;;;;;;;;;;21.36;44.63;98928.84;2047164;28;19930;-67
2022/06/16 01:27:29;;;;;;;;;;;;;;;21.37;44.32;98922.47;2046786;28;19945;-67
2022/06/16 01:28:31;;;;;;;;;;;;;;;21.30;45.10;98918.09;2046179;28;19990;-66
2022/06/16 01:29:40;;;;;;;;;;;;;;;21.37;45.12;98918.94;2050191;28;19930;-67
2022/06/16 01:30:48;;;;;;;;;;;;;;;21.37;44.98;98917.06;2045474;28;19942;-67
2022/06/16 01:31:53;;;;;;;;;;;;;;;21.44;44.59;98919.72;2050235;28;20188;-67
2022/06/16 01:33:00;;;;;;;;;;;;;;;21.41;44.92;98920.16;2046724;28;20035;-67
2022/06/16 01:34:08;;;;;;;;;;;;;;;21.33;45.25;98923.06;2047313;28;19930;-67
2022/06/16 01:35:13;;;;;;;;;;;;;;;21.36;45.47;98923.47;2046543;28;20164;-67
2022/06/16 01:36:22;;;;;;;;;;;;;;;21.40;45.15;98921.22;2046865;28;20485;-67
2022/06/16 01:37:31;;;;;;;;;;;;;;;21.47;45.35;98922.00;2045761;28;20410;-67
2022/06/16 01:38:36;;;;;;;;;;;;;;;21.57;47.86;98913.44;2046028;28;19971;-67
2022/06/16 01:39:40;;;;;;;;;;;;;;;21.70;47.50;98910.66;2050954;28;19930;-67
2022/06/16 01:40:46;;;;;;;;;;;;;;;21.76;47.57;98914.38;2049206;28;19937;-67
2022/06/16 01:41:49;;;;;;;;;;;;;;;21.82;48.36;98913.50;2049561;28;20176;-67
2022/06/16 01:42:55;;;;;;;;;;;;;;;21.83;48.64;98912.44;2049047;28;19937;-67
2022/06/16 01:43:58;;;;;;;;;;;;;;;21.85;49.23;98910.38;2043777;28;19934;-67
2022/06/16 01:45:03;;;;;;;;;;;;;;;21.92;49.34;98908.44;2050760;28;20181;-67
2022/06/16 01:46:08;;;;;;;;;;;;;;;21.95;49.49;98902.59;2050771;28;19930;-67
2022/06/16 01:47:11;;;;;;;;;;;;;;;22.00;49.52;98905.47;2051676;28;20522;-66
2022/06/16 01:48:14;;;;;;;;;;;;;;;22.03;49.81;98913.13;2049845;28;19936;-67
2022/06/16 01:49:18;;;;;;;;;;;;;;;22.02;50.18;98908.78;2047678;28;19941;-67
2022/06/16 01:50:21;;;;;;;;;;;;;;;22.03;50.21;98910.41;2048082;28;19930;-67
2022/06/16 01:51:26;;;;;;;;;;;;;;;22.11;50.32;98903.09;2050927;28;20470;-67
2022/06/16 01:52:30;;;;;;;;;;;;;;;22.12;50.25;98902.91;2042810;28;20180;-64
2022/06/16 01:53:33;;;;;;;;;;;;;;;22.10;50.23;98899.59;2047164;28;20025;-66
2022/06/16 01:54:37;;;;;;;;;;;;;;;22.12;50.28;98902.06;2050270;28;19940;-66
2022/06/16 01:55:40;;;;;;;;;;;;;;;21.99;49.38;98898.41;2044410;28;20951;-67
2022/06/16 01:56:44;;;;;;;;;;;;;;;21.94;49.08;98906.34;2048335;28;20096;-66
2022/06/16 01:57:49;;;;;;;;;;;;;;;21.97;48.38;98905.91;2047537;28;20509;-66
2022/06/16 01:58:52;;;;;;;;;;;;;;;21.91;48.29;98908.66;2050356;28;19960;-67
2022/06/16 01:59:56;;;;;;;;;;;;;;;21.85;47.82;98907.66;2047756;28;19969;-67
2022/06/16 02:01:01;;;;;;;;;;;;;;;21.84;47.62;98911.38;2048562;28;19926;-67
2022/06/16 02:02:04;;;;;;;;;;;;;;;21.74;47.75;98914.59;2048160;28;19934;-67
2022/06/16 02:03:08;;;;;;;;;;;;;;;21.67;47.81;98905.69;2049451;28;20549;-67
2022/06/16 02:04:11;;;;;;;;;;;;;;;21.71;47.27;98914.19;2047927;28;19926;-67
2022/06/16 02:05:16;;;;;;;;;;;;;;;21.69;47.27;98918.97;2050509;28;19933;-67
2022/06/16 02:06:19;;;;;;;;;;;;;;;21.62;46.87;98925.25;2048898;28;19934;-67
2022/06/16 02:07:23;;;;;;;;;;;;;;;21.60;46.77;98921.09;2046327;28;20111;-67
2022/06/16 02:08:26;;;;;;;;;;;;;;;21.55;46.84;98919.03;2049294;28;19926;-67
2022/06/16 02:09:32;;;;;;;;;;;;;;;21.58;47.02;98918.63;2048047;28;19941;-65
2022/06/16 02:10:34;;;;;;;;;;;;;;;21.54;46.66;98916.59;2048984;28;20259;-66
2022/06/16 02:11:37;;;;;;;;;;;;;;;21.50;46.36;98918.03;2050344;28;19999;-66
2022/06/16 02:12:57;;;;;;;;;;;;;;;21.48;46.26;98912.88;2047632;28;19930;-67
2022/06/16 02:14:00;;;;;;;;;;;;;;;21.46;46.74;98912.25;2043794;28;19941;-67
2022/06/16 02:15:06;;;;;;;;;;;;;;;21.44;46.35;98916.22;2049926;28;20504;-67
2022/06/16 02:16:11;;;;;;;;;;;;;;;21.46;46.12;98914.13;2052083;28;20437;-67
2022/06/16 02:17:12;;;;;;;;;;;;;;;21.45;45.94;98918.69;2047540;28;19934;-67
2022/06/16 02:18:16;;;;;;;;;;;;;;;21.44;45.84;98919.72;2050722;28;20190;-67
2022/06/16 02:19:19;;;;;;;;;;;;;;;21.36;45.99;98917.25;2047251;28;19941;-67
2022/06/16 02:20:20;;;;;;;;;;;;;;;21.34;46.36;98917.47;2047729;28;20379;-67
2022/06/16 02:21:23;;;;;;;;;;;;;;;21.39;45.69;98916.84;2045834;28;20019;-67
2022/06/16 02:22:24;;;;;;;;;;;;;;;21.33;45.95;98906.88;2046097;28;19990;-67
2022/06/16 02:23:26;;;;;;;;;;;;;;;21.36;45.62;98909.16;2046516;28;19929;-65
2022/06/16 02:24:29;;;;;;;;;;;;;;;21.32;45.54;98902.53;2047567;28;19930;-64
2022/06/16 02:25:30;;;;;;;;;;;;;;;21.31;45.67;98906.25;2049294;28;19956;-65
2022/06/16 02:26:31;;;;;;;;;;;;;;;21.24;45.43;98900.91;2050647;28;19930;-65
2022/06/16 02:27:32;;;;;;;;;;;;;;;21.26;45.67;98900.72;2047638;28;19930;-66
2022/06/16 02:28:41;;;;;;;;;;;;;;;21.28;45.41;98896.72;2046931;28;19934;-66
2022/06/16 02:29:42;;;;;;;;;;;;;;;21.23;45.23;98903.81;2049197;28;20029;-66
2022/06/16 02:30:51;;;;;;;;;;;;;;;21.23;45.15;98898.41;2047977;28;19926;-66
2022/06/16 02:31:58;;;;;;;;;;;;;;;21.11;45.51;98901.78;2042197;28;19941;-66
2022/06/16 02:33:05;;;;;;;;;;;;;;;21.14;45.69;98901.34;2049021;28;19926;-65
2022/06/16 02:34:11;;;;;;;;;;;;;;;21.13;45.29;98902.41;2049075;28;20333;-66
2022/06/16 02:35:21;;;;;;;;;;;;;;;21.09;44.92;98901.19;2045041;28;20298;-65
2022/06/16 02:36:31;;;;;;;;;;;;;;;21.09;44.90;98897.63;2035318;28;19930;-66
2022/06/16 02:37:43;;;;;;;;;;;;;;;21.13;45.05;98904.28;2045846;28;20200;-66
2022/06/16 02:38:49;;;;;;;;;;;;;;;21.10;44.69;98899.31;2047940;28;19926;-66
2022/06/16 02:39:58;;;;;;;;;;;;;;;21.15;44.26;98899.50;2049312;28;19934;-66
2022/06/16 02:41:05;;;;;;;;;;;;;;;21.05;44.59;98899.94;2048348;28;19926;-67
2022/06/16 02:42:14;;;;;;;;;;;;;;;21.01;44.97;98898.72;2046649;28;20487;-67
2022/06/16 02:43:23;;;;;;;;;;;;;;;20.98;44.66;98891.88;2046323;28;19936;-67
2022/06/16 02:44:30;;;;;;;;;;;;;;;20.98;44.40;98885.66;2047740;28;19934;-67
2022/06/16 02:45:36;;;;;;;;;;;;;;;20.91;45.36;98888.38;2050893;28;20335;-66
2022/06/16 02:46:50;;;;;;;;;;;;;;;20.99;45.77;98887.31;2043330;28;20362;-66
2022/06/16 02:47:59;;;;;;;;;;;;;;;21.03;45.31;98872.34;2046454;28;20130;-66
2022/06/16 02:49:04;;;;;;;;;;;;;;;21.05;44.96;98878.38;2046777;28;20290;-66
2022/06/16 02:50:06;;;;;;;;;;;;;;;21.01;45.42;98877.16;2050251;28;20458;-67
2022/06/16 02:51:11;;;;;;;;;;;;;;;21.03;45.49;98871.53;2051426;28;19926;-66
2022/06/16 02:52:17;;;;;;;;;;;;;;;21.16;47.57;98876.88;2050115;28;19973;-66
2022/06/16 02:53:28;;;;;;;;;;;;;;;21.27;47.86;98883.47;2048161;28;19975;-66
2022/06/16 02:54:32;;;;;;;;;;;;;;;21.33;48.10;98877.22;2046652;28;20165;-66
2022/06/16 02:55:36;;;;;;;;;;;;;;;21.35;48.44;98880.53;2048959;28;19926;-66
2022/06/16 02:56:39;;;;;;;;;;;;;;;21.45;48.33;98874.69;2044749;28;19930;-66
2022/06/16 02:57:45;;;;;;;;;;;;;;;21.47;48.66;98872.59;2052788;28;19926;-67
2022/06/16 02:58:48;;;;;;;;;;;;;;;21.51;48.70;98871.13;2048204;28;20811;-67
2022/06/16 02:59:50;;;;;;;;;;;;;;;21.53;48.78;98877.94;2051582;28;19956;-66
2022/06/16 03:00:53;;;;;;;;;;;;;;;21.50;49.18;98877.56;2049642;28;19941;-66
2022/06/16 03:02:01;;;;;;;;;;;;;;;21.47;49.24;98881.50;2048342;28;20016;-66
2022/06/16 03:03:17;;;;;;;;;;;;;;;21.56;49.32;98879.38;2050998;28;20593;-66
2022/06/16 03:04:19;;;;;;;;;;;;;;;21.57;49.40;98879.19;2048523;28;19981;-67
2022/06/16 03:05:20;;;;;;;;;;;;;;;21.56;49.29;98872.13;2049354;28;19930;-66
2022/06/16 03:06:22;;;;;;;;;;;;;;;21.48;48.73;98875.09;2054336;28;19940;-66
2022/06/16 03:07:23;;;;;;;;;;;;;;;21.45;48.68;98870.09;2046809;28;19979;-66
2022/06/16 03:08:26;;;;;;;;;;;;;;;21.46;48.42;98869.06;2049761;28;19934;-66
2022/06/16 03:09:27;;;;;;;;;;;;;;;21.42;48.11;98865.13;2044699;28;20668;-67
2022/06/16 03:11:44;;;;;;;;;;;;;;;21.25;47.61;98870.19;2045083;28;19930;-66
2022/06/16 03:12:45;;;;;;;;;;;;;;;21.24;47.83;98875.81;2052699;28;19970;-66
2022/06/16 03:13:47;;;;;;;;;;;;;;;21.29;47.33;98867.91;2056900;28;20024;-66
2022/06/16 03:14:47;;;;;;;;;;;;;;;21.25;47.08;98877.44;2043717;28;19986;-66
2022/06/16 03:15:50;;;;;;;;;;;;;;;21.25;47.07;98872.88;2049022;28;20376;-66
2022/06/16 03:16:50;;;;;;;;;;;;;;;21.24;46.64;98873.94;2050133;28;20422;-67
2022/06/16 03:17:52;;;;;;;;;;;;;;;21.19;46.66;98882.66;2044510;28;20082;-66
2022/06/16 03:18:54;;;;;;;;;;;;;;;21.15;46.71;98883.31;2049241;28;19925;-66
2022/06/16 03:19:56;;;;;;;;;;;;;;;21.07;47.05;98888.94;2048089;28;20330;-66
2022/06/16 03:20:56;;;;;;;;;;;;;;;21.07;46.93;98891.66;2050481;28;20296;-66
2022/06/16 03:21:58;;;;;;;;;;;;;;;21.06;46.73;98888.13;2048519;28;19956;-66
2022/06/16 03:22:59;;;;;;;;;;;;;;;21.04;46.54;98881.28;2044460;28;19929;-66
2022/06/16 03:24:00;;;;;;;;;;;;;;;21.04;46.42;98886.69;2049334;28;19926;-66
2022/06/16 03:25:01;;;;;;;;;;;;;;;21.03;46.33;98883.13;2050155;28;19930;-65
2022/06/16 03:26:02;;;;;;;;;;;;;;;21.04;46.23;98884.81;2047786;28;19930;-66
2022/06/16 03:27:04;;;;;;;;;;;;;;;21.11;46.07;98890.16;2047272;28;19934;-67
2022/06/16 03:28:05;;;;;;;;;;;;;;;21.04;46.22;98890.19;2048534;28;19969;-66
2022/06/16 03:29:06;;;;;;;;;;;;;;;20.94;46.58;98895.22;2044423;28;20200;-67
2022/06/16 03:30:08;;;;;;;;;;;;;;;20.97;46.51;98894.78;2043694;28;20157;-67
2022/06/16 03:31:09;;;;;;;;;;;;;;;20.93;46.12;98901.66;2045230;28;21127;-67
2022/06/16 03:32:10;;;;;;;;;;;;;;;20.87;46.06;98897.13;2045669;28;19933;-66
2022/06/16 03:33:11;;;;;;;;;;;;;;;20.86;45.94;98895.44;2046333;28;20399;-66
2022/06/16 03:34:14;;;;;;;;;;;;;;;20.95;45.83;98899.59;2047024;28;19929;-67
2022/06/16 03:35:15;;;;;;;;;;;;;;;20.91;45.67;98890.25;2049170;28;19934;-66
2022/06/16 03:36:17;;;;;;;;;;;;;;;20.88;46.10;98893.38;2046871;28;20311;-66
2022/06/16 03:37:18;;;;;;;;;;;;;;;20.87;45.94;98889.84;2046179;28;19938;-66
2022/06/16 03:38:22;;;;;;;;;;;;;;;20.82;45.96;98892.34;2048660;28;20474;-66
2022/06/16 03:39:24;;;;;;;;;;;;;;;20.80;45.93;98891.72;2044436;28;19937;-67
2022/06/16 03:40:24;;;;;;;;;;;;;;;20.78;45.71;98895.66;2049200;28;20302;-67
2022/06/16 03:41:26;;;;;;;;;;;;;;;20.76;45.56;98887.81;2044849;28;19934;-67
2022/06/16 03:42:27;;;;;;;;;;;;;;;20.82;45.44;98895.03;2047010;28;20017;-68
2022/06/16 03:43:28;;;;;;;;;;;;;;;20.77;45.58;98892.16;2047486;28;20289;-68
2022/06/16 03:44:29;;;;;;;;;;;;;;;20.71;45.98;98901.91;2047560;28;19930;-67
2022/06/16 03:45:31;;;;;;;;;;;;;;;20.72;45.79;98903.56;2049578;28;19948;-67
2022/06/16 03:46:32;;;;;;;;;;;;;;;20.70;45.97;98911.03;2048245;28;20710;-67
2022/06/16 03:47:34;;;;;;;;;;;;;;;20.73;45.43;98907.91;2046391;28;20302;-67
2022/06/16 03:48:35;;;;;;;;;;;;;;;20.78;45.93;98907.28;2043687;28;19933;-67
2022/06/16 03:49:37;;;;;;;;;;;;;;;20.81;45.53;98900.63;2050956;28;19945;-67
2022/06/16 03:50:42;;;;;;;;;;;;;;;20.73;45.55;98899.84;2045379;28;19934;-67
2022/06/16 03:51:42;;;;;;;;;;;;;;;20.68;45.78;98902.34;2048023;28;19930;-67
2022/06/16 03:52:44;;;;;;;;;;;;;;;20.65;45.65;98901.94;2048343;28;20338;-67
2022/06/16 03:53:44;;;;;;;;;;;;;;;20.59;45.70;98902.75;2048310;28;19929;-67
2022/06/16 03:54:46;;;;;;;;;;;;;;;20.55;45.81;98904.22;2051709;28;20272;-67
2022/06/16 03:55:47;;;;;;;;;;;;;;;20.56;45.54;98904.03;2052873;28;22157;-67
2022/06/16 03:56:49;;;;;;;;;;;;;;;20.56;45.20;98898.63;2049109;28;20229;-67
2022/06/16 03:57:50;;;;;;;;;;;;;;;20.62;45.02;98905.06;2049917;28;19938;-66
2022/06/16 03:58:52;;;;;;;;;;;;;;;20.56;45.17;98904.03;2050275;28;22593;-67
2022/06/16 03:59:53;;;;;;;;;;;;;;;20.53;45.41;98907.13;2050343;28;19938;-66
2022/06/16 04:00:55;;;;;;;;;;;;;;;20.51;45.73;98898.41;2049924;28;19938;-68
2022/06/16 04:01:55;;;;;;;;;;;;;;;20.52;45.63;98905.44;2049615;28;19934;-67
2022/06/16 04:04:12;;;;;;;;;;;;;;;20.62;45.40;98897.78;2050632;28;19932;-67
2022/06/16 04:05:15;;;;;;;;;;;;;;;20.54;46.01;98903.41;2048996;28;19938;-67
2022/06/16 04:06:17;;;;;;;;;;;;;;;20.65;47.93;98902.75;2047151;28;20367;-67
2022/06/16 04:07:17;;;;;;;;;;;;;;;20.82;48.29;98897.75;2046422;28;20228;-67
2022/06/16 04:08:19;;;;;;;;;;;;;;;20.96;48.40;98899.34;2046389;28;19930;-67
2022/06/16 04:09:21;;;;;;;;;;;;;;;21.02;48.93;98896.84;2049169;28;19980;-67
2022/06/16 04:10:21;;;;;;;;;;;;;;;21.05;49.02;98897.25;2049093;28;19930;-67
2022/06/16 04:11:30;;;;;;;;;;;;;;;21.06;49.29;98898.91;2050418;28;19934;-67
2022/06/16 04:12:30;;;;;;;;;;;;;;;21.03;49.64;98893.91;2048951;28;19930;-67
2022/06/16 04:13:32;;;;;;;;;;;;;;;21.08;50.04;98891.41;2048854;28;19930;-67
2022/06/16 04:14:33;;;;;;;;;;;;;;;21.11;49.93;98891.00;2048462;28;19933;-67
2022/06/16 04:15:34;;;;;;;;;;;;;;;21.16;50.20;98887.66;2050495;28;20029;-67
2022/06/16 04:16:37;;;;;;;;;;;;;;;21.16;50.24;98885.78;2052095;28;20055;-67
2022/06/16 04:17:39;;;;;;;;;;;;;;;21.19;50.18;98882.66;2046718;28;19936;-67
2022/06/16 04:18:39;;;;;;;;;;;;;;;21.26;50.13;98881.81;2046742;28;20143;-67
2022/06/16 04:20:11;;;;;;;;;;;;;;;21.21;50.37;98887.84;2050504;28;21069;-67
2022/06/16 04:21:04;;;;;;;;;;;;;;;21.20;49.79;98888.88;2049210;28;19929;-67
2022/06/16 04:22:05;;;;;;;;;;;;;;;21.14;48.99;98885.16;2050450;28;19933;-66
2022/06/16 04:23:06;;;;;;;;;;;;;;;21.09;48.72;98893.09;2049015;28;19952;-68
2022/06/16 04:24:08;;;;;;;;;;;;;;;21.05;48.65;98893.72;2052048;28;19934;-66
2022/06/16 04:25:12;;;;;;;;;;;;;;;20.95;48.58;98888.78;2051654;28;19932;-67
2022/06/16 04:26:14;;;;;;;;;;;;;;;20.94;48.57;98889.81;2043955;28;19930;-67
2022/06/16 04:27:16;;;;;;;;;;;;;;;20.97;47.92;98892.09;2048279;28;19930;-67
2022/06/16 04:28:16;;;;;;;;;;;;;;;20.88;48.07;98890.66;2050429;28;19934;-67
2022/06/16 04:29:18;;;;;;;;;;;;;;;20.83;47.61;98882.38;2048256;28;20013;-67
2022/06/16 04:30:19;;;;;;;;;;;;;;;20.78;47.51;98890.28;2049267;28;19926;-67
2022/06/16 04:31:20;;;;;;;;;;;;;;;20.82;47.10;98895.03;2044255;28;20052;-67
2022/06/16 04:32:21;;;;;;;;;;;;;;;20.75;47.26;98892.38;2050653;28;20131;-68
2022/06/16 04:33:23;;;;;;;;;;;;;;;20.70;47.68;98899.44;2045951;28;19930;-67
2022/06/16 04:34:24;;;;;;;;;;;;;;;20.71;47.38;98898.38;2049632;28;19934;-66
2022/06/16 04:35:25;;;;;;;;;;;;;;;20.71;47.58;98901.09;2051308;28;19976;-67
2022/06/16 04:36:27;;;;;;;;;;;;;;;20.70;47.23;98892.19;2050027;28;20112;-67
2022/06/16 04:37:29;;;;;;;;;;;;;;;20.74;46.75;98895.28;2046568;28;19926;-66
2022/06/16 04:38:30;;;;;;;;;;;;;;;20.70;46.65;98894.88;2050068;28;20303;-66
2022/06/16 04:39:31;;;;;;;;;;;;;;;20.71;46.69;98893.81;2046479;28;19934;-66
2022/06/16 04:40:33;;;;;;;;;;;;;;;20.66;46.55;98898.19;2049299;28;19930;-67
2022/06/16 04:41:35;;;;;;;;;;;;;;;20.59;46.84;98895.53;2051229;28;19926;-66
2022/06/16 04:42:36;;;;;;;;;;;;;;;20.62;46.96;98897.78;2046108;28;19942;-66
2022/06/16 04:43:37;;;;;;;;;;;;;;;20.70;46.80;98891.34;2047479;28;19926;-67
2022/06/16 04:44:40;;;;;;;;;;;;;;;20.98;46.45;98891.88;2048177;28;19942;-66
2022/06/16 04:45:42;;;;;;;;;;;;;;;21.30;45.82;98891.13;2052461;28;19937;-67
2022/06/16 04:46:43;;;;;;;;;;;;;;;21.52;45.58;98884.41;2048863;28;20386;-67
2022/06/16 04:47:44;;;;;;;;;;;;;;;21.71;45.75;98884.50;2052433;28;19929;-67
2022/06/16 04:48:45;;;;;;;;;;;;;;;21.88;46.51;98890.19;2050340;28;20269;-67
2022/06/16 04:49:48;;;;;;;;;;;;;;;22.00;47.47;98891.13;2050953;28;20563;-67
2022/06/16 04:50:49;;;;;;;;;;;;;;;22.11;48.49;98893.13;2049789;28;20467;-67
2022/06/16 04:51:52;;;;;;;;;;;;;;;22.20;49.08;98899.09;2055001;28;20111;-67
2022/06/16 04:52:53;;;;;;;;;;;;;;;22.27;49.65;98903.41;2051839;28;19933;-67
2022/06/16 04:53:55;;;;;;;;;;;;;;;22.34;50.09;98906.06;2047122;28;19930;-66
2022/06/16 04:54:55;;;;;;;;;;;;;;;22.41;50.47;98900.59;2049263;28;20075;-68
2022/06/16 04:55:58;;;;;;;;;;;;;;;22.48;50.46;98906.75;2051563;28;19926;-67
2022/06/16 04:56:58;;;;;;;;;;;;;;;22.52;50.79;98903.41;2054038;28;19980;-67
2022/06/16 04:58:00;;;;;;;;;;;;;;;22.59;51.11;98905.19;2051715;28;19930;-68
2022/06/16 04:59:00;;;;;;;;;;;;;;;22.64;51.44;98905.38;2053251;28;20442;-68
2022/06/16 05:00:02;;;;;;;;;;;;;;;22.69;51.32;98905.53;2049322;28;20143;-67
2022/06/16 05:01:04;;;;;;;;;;;;;;;22.73;51.64;98902.16;2051496;28;19930;-68
2022/06/16 05:02:06;;;;;;;;;;;;;;;22.78;51.63;98906.88;2049815;28;19927;-68
2022/06/16 05:03:07;;;;;;;;;;;;;;;22.82;52.01;98904.56;2051619;28;20317;-67
2022/06/16 05:04:08;;;;;;;;;;;;;;;22.87;52.13;98908.25;2039988;28;20020;-68
2022/06/16 05:05:09;;;;;;;;;;;;;;;22.91;52.08;98898.63;2044708;28;19933;-68
2022/06/16 05:06:10;;;;;;;;;;;;;;;22.95;51.95;98896.28;2051097;28;19934;-68
2022/06/16 05:07:12;;;;;;;;;;;;;;;23.01;52.13;98902.72;2050548;28;19941;-67
2022/06/16 05:08:14;;;;;;;;;;;;;;;23.06;52.09;98905.56;2050937;28;20345;-68
2022/06/16 05:09:15;;;;;;;;;;;;;;;23.11;52.28;98911.13;2049782;28;20272;-67
2022/06/16 05:10:16;;;;;;;;;;;;;;;23.14;52.10;98905.25;2044579;28;19937;-68
2022/06/16 05:11:17;;;;;;;;;;;;;;;23.18;52.35;98911.88;2053336;28;20519;-67
2022/06/16 05:12:18;;;;;;;;;;;;;;;23.20;52.57;98910.59;2051221;28;19932;-68
2022/06/16 05:13:19;;;;;;;;;;;;;;;23.26;52.31;98908.84;2051954;28;20401;-68
2022/06/16 05:14:21;;;;;;;;;;;;;;;23.30;52.37;98904.66;2048418;28;19930;-67
2022/06/16 05:15:22;;;;;;;;;;;;;;;23.33;52.30;98906.91;2054212;28;20216;-67
2022/06/16 05:16:23;;;;;;;;;;;;;;;23.36;52.37;98900.19;2054292;28;19934;-68
2022/06/16 05:17:24;;;;;;;;;;;;;;;23.40;52.47;98907.66;2051841;28;19941;-68
2022/06/16 05:18:26;;;;;;;;;;;;;;;23.44;52.30;98910.72;2053729;28;19933;-64
2022/06/16 05:19:30;;;;;;;;;;;;;;;23.47;52.52;98906.72;2050569;28;19956;-65
2022/06/16 05:20:32;;;;;;;;;;;;;;;23.49;52.28;98908.16;2050299;28;20444;-67
2022/06/16 05:21:32;;;;;;;;;;;;;;;23.53;52.42;98909.34;2051011;28;20427;-66
2022/06/16 05:22:35;;;;;;;;;;;;;;;23.56;52.58;98908.06;2053543;28;19930;-66
2022/06/16 05:23:36;;;;;;;;;;;;;;;23.61;52.39;98916.31;2050495;28;19930;-67
2022/06/16 05:24:38;;;;;;;;;;;;;;;23.60;52.35;98918.19;2049315;28;19930;-67
2022/06/16 05:25:39;;;;;;;;;;;;;;;23.63;52.46;98920.44;2051961;28;19957;-66
2022/06/16 05:26:40;;;;;;;;;;;;;;;23.67;52.46;98923.53;2047579;28;20251;-67
2022/06/16 05:27:41;;;;;;;;;;;;;;;23.69;52.52;98926.81;2048694;28;19930;-66
2022/06/16 05:28:42;;;;;;;;;;;;;;;23.74;52.62;98916.16;2052991;28;20584;-67
2022/06/16 05:29:43;;;;;;;;;;;;;;;23.78;52.65;98924.66;2053897;28;20394;-67
2022/06/16 05:30:44;;;;;;;;;;;;;;;23.81;52.22;98911.47;2053599;28;19937;-67
2022/06/16 05:31:45;;;;;;;;;;;;;;;23.83;52.36;98920.19;2049130;28;20011;-67
2022/06/16 05:32:47;;;;;;;;;;;;;;;23.86;52.49;98921.63;2054446;28;20508;-66
2022/06/16 05:33:49;;;;;;;;;;;;;;;23.89;52.12;98923.84;2049816;28;19941;-67